Willseyville, New York
Current Conditions -  °F | °C
As of 10:56 PM on Saturday 25 Oct 2014 (Local Time) from KITH Reporting Station
Few Clouds Few Clouds  
Wind Chill: 53°   Ceiling: Unl
Heat Index: 53°   Visibility: 10mi
Dew Point: 45°   Wind: 6mph
Humidity: 74%   Direction: 260°W
Pressure: 29.6"   Gusts: NA
Location:  42.29°N, 76.38°W
Report Text: KITH 260256Z AUTO 26005KT 10SM FEW070 12/07 A2960 RMK AO2 58008 T01160072 SLP022
Loading
Personal Weather Stations






























Interactive Weather Map
Tropical Storm Tracking
New forecast layout! Learn more

10-Day Weather Forecast

Advertisements
Track Severe Weather on mobile